Time;durP1;ratioP1;P1;durP2;ratioP2;P2;SDS_P1;SDS_P2;PMS_P1;PMS_P2;Temp;Humidity;BMP_temperature;BMP_pressure;BME280_temperature;BME280_humidity;BME280_pressure;Samples;Min_cycle;Max_cycle;Signal;HPM_P1;HPM_P2
2021/08/15 00:02:17;;;;;;;10.88;7.03;;;23.30;98.00;;;;;;5127062;27;20047;-78
2021/08/15 00:04:44;;;;;;;10.95;8.23;;;23.30;98.20;;;;;;5127393;27;20082;-78
2021/08/15 00:07:12;;;;;;;10.10;8.10;;;23.30;98.40;;;;;;5119404;27;20122;-78
2021/08/15 00:09:39;;;;;;;10.38;8.20;;;23.30;98.30;;;;;;5127459;27;20496;-77
2021/08/15 00:12:09;;;;;;;10.18;7.80;;;23.30;98.20;;;;;;5127015;27;20086;-77
2021/08/15 00:14:36;;;;;;;11.30;7.97;;;23.40;98.10;;;;;;5123455;27;20484;-80
2021/08/15 00:17:04;;;;;;;8.93;7.18;;;23.30;98.20;;;;;;5124307;27;20151;-78
2021/08/15 00:19:31;;;;;;;10.55;7.22;;;23.30;98.30;;;;;;5116070;27;20581;-80
2021/08/15 00:21:58;;;;;;;12.60;7.95;;;23.40;98.30;;;;;;5125094;27;20082;-78
2021/08/15 00:24:27;;;;;;;9.05;6.93;;;23.40;98.30;;;;;;5140112;27;20046;-79
2021/08/15 00:26:54;;;;;;;9.95;7.75;;;23.40;98.30;;;;;;5132591;27;20515;-79
2021/08/15 00:29:22;;;;;;;9.68;7.68;;;23.50;98.20;;;;;;5124302;27;20127;-80
2021/08/15 00:31:50;;;;;;;10.52;8.15;;;23.50;98.20;;;;;;5116059;27;20126;-80
2021/08/15 00:34:18;;;;;;;9.85;7.80;;;23.60;98.10;;;;;;5131978;27;20104;-78
2021/08/15 00:36:45;;;;;;;10.82;7.88;;;23.50;98.10;;;;;;5123278;27;20039;-80
2021/08/15 00:39:12;;;;;;;10.85;7.47;;;23.60;98.00;;;;;;5123924;27;20142;-79
2021/08/15 00:41:41;;;;;;;10.48;7.97;;;23.60;98.10;;;;;;5120180;27;20075;-78
2021/08/15 00:44:08;;;;;;;11.32;8.90;;;23.60;98.10;;;;;;5118606;27;20118;-78
2021/08/15 00:46:40;;;;;;;10.75;8.18;;;23.60;98.00;;;;;;5126931;27;20054;-79
2021/08/15 00:49:07;;;;;;;9.02;6.88;;;23.60;98.30;;;;;;5125416;27;20054;-78
2021/08/15 00:51:34;;;;;;;10.30;8.07;;;23.60;98.20;;;;;;5126604;27;20135;-79
2021/08/15 00:54:01;;;;;;;10.35;8.07;;;23.50;98.10;;;;;;5118763;27;20126;-80
2021/08/15 00:56:29;;;;;;;9.65;7.80;;;23.60;98.00;;;;;;5130665;27;20130;-77
2021/08/15 00:58:58;;;;;;;11.63;8.00;;;23.50;98.00;;;;;;5121994;27;20135;-78
2021/08/15 01:01:25;;;;;;;11.85;8.32;;;23.50;98.10;;;;;;5123356;27;20053;-79
2021/08/15 01:03:52;;;;;;;9.60;7.90;;;23.50;98.10;;;;;;5123190;27;20126;-78
2021/08/15 01:06:19;;;;;;;9.15;7.25;;;23.50;98.10;;;;;;5124941;27;20130;-77
2021/08/15 01:08:46;;;;;;;8.60;7.05;;;23.40;98.10;;;;;;5126730;27;20123;-78
2021/08/15 01:11:13;;;;;;;11.18;7.82;;;23.50;98.20;;;;;;5126430;27;20131;-80
2021/08/15 01:13:42;;;;;;;10.00;7.82;;;23.40;98.10;;;;;;5134553;27;20066;-80
2021/08/15 01:16:11;;;;;;;8.95;7.03;;;23.40;97.90;;;;;;5127946;27;20114;-79
2021/08/15 01:18:39;;;;;;;11.40;7.88;;;23.40;97.80;;;;;;5118434;27;20035;-80
2021/08/15 01:21:10;;;;;;;9.48;7.10;;;23.30;97.80;;;;;;5129460;27;20552;-79
2021/08/15 01:23:39;;;;;;;8.20;6.93;;;23.20;97.90;;;;;;5129516;27;20086;-79
2021/08/15 01:26:08;;;;;;;10.43;7.55;;;23.10;98.10;;;;;;5119635;27;20047;-79
2021/08/15 01:28:37;;;;;;;10.65;7.78;;;23.10;98.10;;;;;;5129517;27;20126;-80
2021/08/15 01:31:05;;;;;;;10.43;7.88;;;23.10;98.00;;;;;;5126898;27;20129;-79
2021/08/15 01:33:34;;;;;;;12.10;8.00;;;23.00;98.00;;;;;;5126122;27;20118;-80
2021/08/15 01:36:03;;;;;;;11.00;7.78;;;22.90;98.00;;;;;;5132615;27;20067;-77
2021/08/15 01:38:34;;;;;;;10.70;8.07;;;22.70;98.10;;;;;;5123617;27;20500;-80
2021/08/15 01:41:01;;;;;;;10.88;7.95;;;22.60;98.20;;;;;;5131458;27;20071;-78
2021/08/15 01:43:30;;;;;;;10.35;7.90;;;22.50;98.40;;;;;;5137579;27;20071;-78
2021/08/15 01:45:59;;;;;;;9.90;7.35;;;22.40;98.80;;;;;;5122907;27;20558;-81
2021/08/15 01:48:26;;;;;;;9.63;7.32;;;22.30;99.20;;;;;;5122688;27;20134;-79
2021/08/15 01:50:53;;;;;;;10.88;7.28;;;22.30;99.40;;;;;;5128513;27;20106;-81
2021/08/15 01:53:23;;;;;;;9.93;7.95;;;22.30;99.50;;;;;;5124221;27;20126;-79
2021/08/15 01:55:51;;;;;;;11.18;7.05;;;22.30;99.50;;;;;;5125623;28;20074;-79
2021/08/15 01:58:19;;;;;;;12.38;7.75;;;22.30;99.50;;;;;;5129637;27;20050;-79
2021/08/15 02:00:46;;;;;;;9.93;7.05;;;22.20;99.60;;;;;;5128910;27;20040;-78
2021/08/15 02:03:15;;;;;;;9.63;6.80;;;22.20;99.70;;;;;;5125072;27;20134;-78
2021/08/15 02:05:44;;;;;;;10.77;7.20;;;22.30;99.80;;;;;;5120898;27;20040;-79
2021/08/15 02:08:11;;;;;;;10.32;7.30;;;22.30;99.70;;;;;;5129965;27;20046;-80
2021/08/15 02:10:39;;;;;;;11.38;7.25;;;22.30;99.60;;;;;;5121896;27;20134;-78
2021/08/15 02:13:07;;;;;;;9.88;7.53;;;22.40;99.60;;;;;;5121869;27;20135;-78
2021/08/15 02:15:36;;;;;;;10.43;7.28;;;22.40;99.50;;;;;;5121380;28;20066;-79
2021/08/15 02:18:04;;;;;;;10.55;7.30;;;22.40;99.50;;;;;;5104881;28;20126;-79
2021/08/15 02:20:35;;;;;;;10.73;8.00;;;22.40;99.50;;;;;;5114379;28;20131;-79
2021/08/15 02:23:03;;;;;;;9.55;7.47;;;22.40;99.40;;;;;;5121445;28;20118;-78
2021/08/15 02:25:31;;;;;;;11.13;7.93;;;22.50;99.30;;;;;;5113015;28;20131;-79
2021/08/15 02:27:58;;;;;;;9.27;7.75;;;22.50;99.10;;;;;;5121898;28;20126;-79
2021/08/15 02:30:26;;;;;;;10.50;7.75;;;22.40;98.80;;;;;;5124282;27;20118;-79
2021/08/15 02:32:54;;;;;;;11.13;7.63;;;22.40;98.70;;;;;;5126459;28;20122;-78
2021/08/15 02:35:22;;;;;;;11.38;8.40;;;22.30;98.60;;;;;;5124129;28;20058;-79
2021/08/15 02:37:53;;;;;;;9.95;7.82;;;22.20;98.70;;;;;;5124942;28;20100;-79
2021/08/15 02:40:22;;;;;;;10.10;7.75;;;22.10;99.00;;;;;;5116813;28;20513;-79
2021/08/15 02:42:51;;;;;;;10.23;7.05;;;22.00;99.30;;;;;;5107001;28;20053;-79
2021/08/15 02:45:20;;;;;;;8.80;6.82;;;22.00;99.30;;;;;;5122776;27;20089;-79
2021/08/15 02:47:48;;;;;;;10.18;7.07;;;22.00;99.50;;;;;;5121679;28;20131;-79
2021/08/15 02:50:17;;;;;;;8.40;6.70;;;21.90;99.50;;;;;;5122552;28;20408;-79
2021/08/15 02:52:45;;;;;;;9.38;7.35;;;22.00;99.50;;;;;;5125008;28;20066;-78
2021/08/15 02:55:13;;;;;;;9.77;7.05;;;22.00;99.40;;;;;;5123748;27;20122;-78
2021/08/15 02:57:41;;;;;;;9.45;7.38;;;22.10;99.40;;;;;;5126356;28;20123;-79
2021/08/15 03:00:11;;;;;;;8.82;7.35;;;22.10;99.40;;;;;;5124218;27;20134;-79
2021/08/15 03:02:38;;;;;;;11.23;7.22;;;22.10;99.30;;;;;;5121110;27;20512;-79
2021/08/15 03:05:07;;;;;;;9.98;7.53;;;22.10;99.30;;;;;;5120099;28;20069;-78
2021/08/15 03:07:35;;;;;;;9.65;7.32;;;22.10;99.30;;;;;;5119716;28;20503;-79
2021/08/15 03:10:03;;;;;;;10.32;7.28;;;22.20;99.30;;;;;;5119153;28;20166;-77
2021/08/15 03:12:31;;;;;;;9.25;7.32;;;22.20;99.00;;;;;;5122598;28;20130;-77
2021/08/15 03:14:59;;;;;;;9.30;7.13;;;22.10;99.00;;;;;;5128352;28;20126;-78
2021/08/15 03:17:26;;;;;;;10.85;7.25;;;22.10;98.90;;;;;;5120721;28;20051;-77
2021/08/15 03:19:53;;;;;;;9.63;7.47;;;22.10;99.00;;;;;;5117332;28;20090;-78
2021/08/15 03:22:20;;;;;;;8.60;6.80;;;22.10;99.00;;;;;;5121873;27;20130;-79
2021/08/15 03:24:47;;;;;;;10.02;6.97;;;22.10;99.10;;;;;;5128025;27;20077;-80
2021/08/15 03:27:14;;;;;;;9.45;7.50;;;22.10;99.10;;;;;;5117642;27;20123;-77
2021/08/15 03:29:42;;;;;;;10.27;7.03;;;22.10;99.10;;;;;;5125559;27;20126;-79
2021/08/15 03:32:09;;;;;;;8.73;6.90;;;22.10;99.10;;;;;;5132332;27;20043;-77
2021/08/15 03:34:36;;;;;;;8.93;7.10;;;22.10;99.20;;;;;;5125530;27;20472;-78
2021/08/15 03:37:04;;;;;;;9.13;6.93;;;22.10;99.20;;;;;;5118606;27;20469;-80
2021/08/15 03:39:31;;;;;;;9.73;7.43;;;22.00;99.20;;;;;;5114264;27;20138;-80
2021/08/15 03:41:59;;;;;;;8.85;7.15;;;22.00;99.20;;;;;;5122057;27;20124;-79
2021/08/15 03:44:29;;;;;;;10.27;7.53;;;22.00;99.20;;;;;;5124062;27;20038;-80
2021/08/15 03:46:57;;;;;;;9.73;6.70;;;22.00;99.10;;;;;;5125427;27;20717;-80
2021/08/15 03:49:27;;;;;;;9.93;6.53;;;21.90;98.90;;;;;;5117691;27;20138;-79
2021/08/15 03:51:54;;;;;;;9.63;7.10;;;21.90;99.00;;;;;;5125421;27;20039;-79
2021/08/15 03:54:21;;;;;;;9.45;7.10;;;21.80;99.00;;;;;;5122540;27;20509;-79
2021/08/15 03:56:49;;;;;;;9.70;7.20;;;21.90;99.10;;;;;;5121394;27;20460;-77
2021/08/15 03:59:18;;;;;;;9.45;6.63;;;21.80;99.10;;;;;;5121866;27;20118;-78
2021/08/15 04:01:46;;;;;;;9.52;6.63;;;21.80;99.20;;;;;;5111676;27;20069;-78
2021/08/15 04:04:15;;;;;;;10.30;7.45;;;21.80;99.30;;;;;;5125867;27;20054;-78
2021/08/15 04:06:42;;;;;;;11.52;7.45;;;21.80;99.20;;;;;;5120914;27;20071;-79
2021/08/15 04:09:10;;;;;;;9.32;6.63;;;21.80;99.20;;;;;;5126040;27;20039;-79
2021/08/15 04:11:37;;;;;;;9.68;7.03;;;21.80;99.20;;;;;;5123793;27;20119;-79
2021/08/15 04:14:04;;;;;;;9.32;6.93;;;21.80;99.30;;;;;;5123581;27;20464;-80
2021/08/15 04:16:31;;;;;;;9.80;6.80;;;21.80;99.30;;;;;;5126300;27;20071;-79
2021/08/15 04:18:58;;;;;;;9.32;7.00;;;21.80;99.20;;;;;;5126839;27;20122;-79
2021/08/15 04:21:27;;;;;;;9.43;7.07;;;21.80;99.30;;;;;;5123942;27;20129;-79
2021/08/15 04:23:54;;;;;;;9.88;7.03;;;21.70;99.20;;;;;;5123447;27;20127;-78
2021/08/15 04:26:21;;;;;;;10.13;6.68;;;21.70;99.20;;;;;;5125694;27;20131;-77
2021/08/15 04:28:48;;;;;;;10.18;6.93;;;21.70;99.20;;;;;;5127669;27;20478;-80
2021/08/15 04:31:15;;;;;;;8.65;6.60;;;21.60;99.30;;;;;;5124586;27;20071;-79
2021/08/15 04:33:42;;;;;;;9.32;6.15;;;21.60;99.40;;;;;;5125652;27;20212;-79
2021/08/15 04:36:09;;;;;;;7.80;6.30;;;21.60;99.50;;;;;;5125815;27;20131;-78
2021/08/15 04:38:38;;;;;;;11.70;7.15;;;21.60;99.30;;;;;;5124239;27;20041;-77
2021/08/15 04:41:05;;;;;;;10.15;7.57;;;21.60;98.90;;;;;;5134203;27;20040;-80
2021/08/15 04:43:33;;;;;;;9.45;7.40;;;21.50;98.80;;;;;;5129121;27;20071;-79
2021/08/15 04:46:00;;;;;;;12.02;7.28;;;21.40;99.00;;;;;;5127073;27;20075;-80
2021/08/15 04:48:28;;;;;;;11.32;7.40;;;21.30;99.20;;;;;;5131730;27;20063;-80
2021/08/15 04:50:55;;;;;;;10.20;7.32;;;21.20;99.40;;;;;;5124470;27;20040;-78
2021/08/15 04:53:22;;;;;;;9.85;7.30;;;21.10;99.60;;;;;;5125335;27;20153;-78
2021/08/15 04:55:51;;;;;;;9.80;7.50;;;21.00;99.80;;;;;;5126363;27;20050;-80
2021/08/15 04:58:18;;;;;;;10.20;7.43;;;21.00;99.90;;;;;;5124406;27;20112;-79
2021/08/15 05:00:45;;;;;;;9.05;7.05;;;21.00;99.90;;;;;;5122986;27;20131;-79
2021/08/15 05:03:15;;;;;;;9.20;7.05;;;20.90;99.90;;;;;;5131368;27;20067;-79
2021/08/15 05:05:43;;;;;;;10.95;7.30;;;20.80;99.90;;;;;;5121099;27;20118;-80
2021/08/15 05:08:10;;;;;;;11.23;8.45;;;20.80;99.90;;;;;;5122955;27;20127;-78
2021/08/15 05:10:38;;;;;;;13.73;8.18;;;20.80;99.90;;;;;;5119896;27;20057;-80
2021/08/15 05:13:06;;;;;;;12.48;8.05;;;20.70;99.90;;;;;;5119414;27;20503;-80
2021/08/15 05:15:33;;;;;;;11.80;7.90;;;20.70;99.90;;;;;;5130341;27;20123;-78
2021/08/15 05:18:02;;;;;;;13.02;8.80;;;20.70;99.90;;;;;;5126756;27;20121;-79
2021/08/15 05:20:30;;;;;;;11.45;8.98;;;20.70;99.90;;;;;;5131913;27;20446;-77
2021/08/15 05:22:57;;;;;;;11.32;8.35;;;20.60;99.90;;;;;;5119308;27;20126;-80
2021/08/15 05:25:25;;;;;;;9.85;7.75;;;20.60;99.90;;;;;;5122405;27;20055;-80
2021/08/15 05:27:52;;;;;;;10.32;7.43;;;20.60;99.90;;;;;;5110047;27;20127;-79
2021/08/15 05:30:20;;;;;;;8.85;7.18;;;20.60;99.90;;;;;;5115690;27;20571;-79
2021/08/15 05:32:47;;;;;;;10.38;8.02;;;20.60;99.90;;;;;;5114795;27;20134;-79
2021/08/15 05:35:14;;;;;;;9.63;7.68;;;20.70;99.90;;;;;;5123076;27;20083;-79
2021/08/15 05:37:42;;;;;;;10.52;8.07;;;20.70;99.90;;;;;;5114988;27;20043;-79
2021/08/15 05:40:10;;;;;;;10.35;7.68;;;20.80;99.90;;;;;;5122905;27;20147;-79
2021/08/15 05:42:38;;;;;;;9.55;7.30;;;20.80;99.90;;;;;;5114325;27;20130;-79
2021/08/15 05:45:07;;;;;;;10.88;7.32;;;20.90;99.90;;;;;;5117920;27;20079;-78
2021/08/15 05:47:36;;;;;;;12.60;7.78;;;21.00;99.90;;;;;;5107356;27;20043;-77
2021/08/15 05:50:05;;;;;;;9.93;7.38;;;21.00;99.90;;;;;;5127802;27;20039;-74
2021/08/15 05:52:32;;;;;;;9.88;7.45;;;21.10;99.90;;;;;;5135699;27;20107;-74
2021/08/15 05:54:59;;;;;;;10.77;8.00;;;21.20;99.90;;;;;;5130378;27;20127;-75
2021/08/15 05:57:26;;;;;;;9.98;7.57;;;21.20;99.90;;;;;;5122182;27;20134;-78
2021/08/15 05:59:54;;;;;;;9.45;7.35;;;21.20;99.90;;;;;;5120898;27;20131;-75
2021/08/15 06:02:21;;;;;;;9.73;7.05;;;21.30;99.90;;;;;;5106423;27;20136;-75
2021/08/15 06:04:49;;;;;;;10.68;7.75;;;21.40;99.90;;;;;;5114721;28;20122;-78
2021/08/15 06:07:16;;;;;;;9.70;7.47;;;21.40;99.90;;;;;;5126336;27;20139;-74
2021/08/15 06:09:43;;;;;;;9.90;7.97;;;21.40;99.90;;;;;;5110466;28;20127;-75
2021/08/15 06:12:11;;;;;;;9.23;7.40;;;21.50;99.90;;;;;;5118370;27;20119;-78
2021/08/15 06:14:38;;;;;;;11.13;7.88;;;21.50;99.90;;;;;;5114212;27;20086;-77
2021/08/15 06:17:06;;;;;;;10.55;7.60;;;21.50;99.90;;;;;;5109431;27;20135;-78
2021/08/15 06:19:33;;;;;;;8.80;6.60;;;21.60;99.90;;;;;;5110681;28;20047;-74
2021/08/15 06:22:02;;;;;;;9.85;6.22;;;21.60;99.90;;;;;;5111826;28;20071;-75
2021/08/15 06:24:30;;;;;;;9.20;7.05;;;21.70;99.90;;;;;;5102949;28;20122;-74
2021/08/15 06:26:57;;;;;;;12.02;7.10;;;21.80;99.90;;;;;;5105126;28;20135;-74
2021/08/15 06:29:24;;;;;;;10.77;7.60;;;21.90;99.90;;;;;;5093312;28;20128;-75
2021/08/15 06:31:51;;;;;;;9.43;6.43;;;22.00;99.90;;;;;;5092923;28;20139;-75
2021/08/15 06:34:18;;;;;;;9.57;6.75;;;22.00;99.90;;;;;;5093925;28;20040;-77
2021/08/15 06:36:45;;;;;;;8.60;6.32;;;22.10;99.90;;;;;;5105160;28;20089;-75
2021/08/15 06:39:14;;;;;;;9.30;6.90;;;22.20;99.90;;;;;;5113295;28;20202;-77
2021/08/15 06:41:41;;;;;;;8.60;6.72;;;22.30;99.90;;;;;;5111042;28;20138;-76
2021/08/15 06:44:09;;;;;;;8.68;6.63;;;22.30;99.80;;;;;;5122708;28;20476;-75
2021/08/15 06:46:36;;;;;;;8.23;6.22;;;22.40;99.80;;;;;;5110899;28;20043;-76
2021/08/15 06:49:03;;;;;;;9.00;5.97;;;22.50;99.70;;;;;;5113370;28;20044;-75
2021/08/15 06:51:30;;;;;;;9.35;6.50;;;22.50;99.70;;;;;;5116727;28;20458;-76
2021/08/15 06:53:57;;;;;;;10.23;7.15;;;22.60;99.70;;;;;;5102682;28;20072;-76
2021/08/15 06:56:26;;;;;;;9.23;6.80;;;22.70;99.60;;;;;;5099466;28;20469;-76
2021/08/15 06:58:53;;;;;;;10.27;6.68;;;22.70;99.50;;;;;;5107811;28;20126;-76
2021/08/15 07:01:20;;;;;;;10.65;7.13;;;22.80;99.60;;;;;;5116054;28;20556;-75
2021/08/15 07:03:48;;;;;;;8.77;6.93;;;22.90;99.40;;;;;;5137346;27;20463;-75
2021/08/15 07:06:15;;;;;;;10.68;6.55;;;22.90;99.30;;;;;;5141424;27;20476;-75
2021/08/15 07:08:42;;;;;;;9.82;6.85;;;23.00;99.30;;;;;;5128509;27;20127;-75
2021/08/15 07:11:09;;;;;;;10.85;6.65;;;23.10;99.20;;;;;;5101794;28;20135;-77
2021/08/15 07:13:37;;;;;;;8.95;6.72;;;23.10;99.10;;;;;;5111947;28;20524;-76
2021/08/15 07:16:05;;;;;;;10.30;7.05;;;23.20;98.90;;;;;;5118004;28;20127;-78
2021/08/15 07:18:33;;;;;;;8.82;7.10;;;23.20;98.80;;;;;;5119139;28;20104;-76
2021/08/15 07:21:02;;;;;;;9.00;6.82;;;23.30;98.70;;;;;;5118372;28;20052;-80
2021/08/15 07:23:29;;;;;;;8.68;6.40;;;23.30;98.60;;;;;;5116720;28;20059;-76
2021/08/15 07:25:56;;;;;;;10.75;7.75;;;23.30;98.60;;;;;;5109563;27;20134;-77
2021/08/15 07:28:24;;;;;;;11.98;8.43;;;23.40;98.50;;;;;;5110509;27;20075;-76
2021/08/15 07:30:52;;;;;;;10.90;8.30;;;23.50;98.60;;;;;;5118984;27;20067;-75
2021/08/15 07:33:20;;;;;;;11.88;7.70;;;23.50;98.30;;;;;;5118995;27;20063;-77
2021/08/15 07:35:48;;;;;;;11.68;7.05;;;23.60;98.30;;;;;;5117424;27;20477;-75
2021/08/15 07:38:15;;;;;;;9.45;7.00;;;23.70;98.20;;;;;;5123530;27;20047;-76
2021/08/15 07:40:42;;;;;;;10.68;6.97;;;23.70;98.20;;;;;;5117649;27;20040;-76
2021/08/15 07:43:09;;;;;;;10.13;7.20;;;23.80;98.10;;;;;;5122453;27;20374;-75
2021/08/15 07:45:36;;;;;;;8.05;6.40;;;23.80;97.90;;;;;;5113226;27;20049;-76
2021/08/15 07:48:06;;;;;;;9.68;6.68;;;23.80;98.00;;;;;;5124644;27;20405;-75
2021/08/15 07:50:38;;;;;;;8.73;6.22;;;23.90;98.00;;;;;;5126062;27;20040;-74
2021/08/15 07:53:28;;;;;;;9.73;6.72;;;24.00;98.00;;;;;;5131158;27;20412;-77
2021/08/15 07:55:57;;;;;;;9.73;7.00;;;24.00;97.90;;;;;;5130649;27;20082;-76
2021/08/15 07:58:25;;;;;;;9.30;7.18;;;24.10;97.70;;;;;;5131980;27;20127;-74
2021/08/15 08:00:53;;;;;;;9.27;6.93;;;24.10;97.50;;;;;;5139479;27;20072;-75
2021/08/15 08:03:21;;;;;;;10.00;6.78;;;24.20;97.50;;;;;;5142345;27;20047;-76
2021/08/15 08:05:49;;;;;;;9.32;6.63;;;24.30;97.50;;;;;;5137993;27;20070;-74
2021/08/15 08:08:16;;;;;;;9.30;7.07;;;24.30;97.40;;;;;;5126322;27;20047;-78
2021/08/15 08:10:47;;;;;;;9.60;6.70;;;24.40;97.30;;;;;;5131528;27;20103;-77
2021/08/15 08:13:14;;;;;;;9.75;6.50;;;24.50;97.10;;;;;;5138087;27;20100;-75
2021/08/15 08:15:42;;;;;;;9.55;6.80;;;24.60;96.90;;;;;;5129974;27;20477;-74
2021/08/15 08:18:10;;;;;;;9.07;6.85;;;24.60;96.60;;;;;;5125548;27;20073;-75
2021/08/15 08:20:39;;;;;;;7.85;6.32;;;24.70;96.40;;;;;;5128264;27;20560;-76
2021/08/15 08:23:09;;;;;;;10.30;6.20;;;24.80;96.30;;;;;;5143733;27;20075;-75
2021/08/15 08:25:37;;;;;;;8.05;6.38;;;24.80;96.10;;;;;;5140428;27;20074;-77
2021/08/15 08:28:05;;;;;;;9.00;6.25;;;24.90;95.90;;;;;;5143239;27;20132;-74
2021/08/15 08:30:32;;;;;;;10.90;7.00;;;25.00;95.80;;;;;;5127226;27;20489;-76
2021/08/15 08:32:59;;;;;;;10.25;7.10;;;25.10;95.70;;;;;;5126240;27;20047;-74
2021/08/15 08:35:27;;;;;;;10.35;6.70;;;25.10;95.60;;;;;;5130665;27;20170;-74
2021/08/15 08:37:55;;;;;;;8.68;6.55;;;25.20;95.50;;;;;;5127993;27;20131;-76
2021/08/15 08:40:24;;;;;;;8.85;6.65;;;25.20;95.40;;;;;;5118893;27;20047;-77
2021/08/15 08:42:52;;;;;;;9.35;6.60;;;25.30;95.40;;;;;;5117694;27;20047;-75
2021/08/15 08:45:22;;;;;;;8.73;6.45;;;25.30;95.30;;;;;;5114900;27;20282;-75
2021/08/15 08:47:50;;;;;;;9.55;6.65;;;25.40;95.40;;;;;;5104991;27;20127;-74
2021/08/15 08:50:19;;;;;;;10.48;6.80;;;25.40;95.30;;;;;;5125414;27;20047;-75
2021/08/15 08:52:47;;;;;;;11.73;6.70;;;25.50;95.20;;;;;;5128553;27;20102;-74
2021/08/15 08:55:17;;;;;;;8.02;6.60;;;25.60;95.00;;;;;;5111917;27;20131;-76
2021/08/15 08:57:45;;;;;;;8.98;6.88;;;25.60;94.90;;;;;;5116456;27;20044;-76
2021/08/15 09:00:14;;;;;;;8.68;6.32;;;25.60;94.80;;;;;;5120683;27;20046;-76
2021/08/15 09:02:41;;;;;;;8.05;6.45;;;25.70;94.70;;;;;;5112553;27;20138;-77
2021/08/15 09:05:10;;;;;;;9.15;6.18;;;25.80;94.70;;;;;;5125701;27;20070;-74
2021/08/15 09:07:39;;;;;;;8.77;6.57;;;25.80;94.60;;;;;;5115347;27;20126;-75
2021/08/15 09:10:09;;;;;;;8.43;6.60;;;25.90;94.60;;;;;;5115383;27;20548;-74
2021/08/15 09:12:40;;;;;;;9.82;7.03;;;25.90;94.40;;;;;;5113501;27;20043;-77
2021/08/15 09:15:10;;;;;;;10.07;7.10;;;26.00;94.40;;;;;;5125347;27;20122;-77
2021/08/15 09:17:38;;;;;;;8.40;6.43;;;26.00;94.30;;;;;;5118728;27;20123;-78
2021/08/15 09:20:08;;;;;;;10.98;6.60;;;26.10;94.40;;;;;;5123420;27;20048;-78
2021/08/15 09:22:37;;;;;;;8.27;6.40;;;26.20;94.20;;;;;;5121037;27;20147;-79
2021/08/15 09:25:09;;;;;;;8.02;6.20;;;26.20;94.10;;;;;;5119178;27;20465;-76
2021/08/15 09:27:39;;;;;;;9.05;6.82;;;26.30;94.20;;;;;;5120781;27;20039;-79
2021/08/15 09:30:19;;;;;;;8.70;6.38;;;26.40;94.00;;;;;;5114315;27;20120;-80
2021/08/15 09:32:56;;;;;;;8.77;6.47;;;26.40;94.00;;;;;;5120600;27;20117;-79
2021/08/15 09:35:29;;;;;;;8.32;6.45;;;26.60;93.90;;;;;;5114193;27;20506;-77
2021/08/15 09:38:01;;;;;;;8.75;6.88;;;26.70;93.60;;;;;;5125136;27;20120;-79
2021/08/15 09:40:32;;;;;;;8.15;6.38;;;26.80;93.50;;;;;;5112609;28;20048;-80
2021/08/15 09:43:03;;;;;;;7.65;6.18;;;26.90;93.50;;;;;;5117168;27;20047;-75
2021/08/15 09:45:45;;;;;;;8.90;6.35;;;26.90;93.50;;;;;;5125679;27;20118;-79
2021/08/15 09:48:24;;;;;;;7.30;6.10;;;27.00;93.30;;;;;;5115118;28;20122;-78
2021/08/15 09:51:16;;;;;;;8.63;6.70;;;27.10;92.90;;;;;;5111201;27;20070;-77
2021/08/15 09:53:46;;;;;;;8.65;7.10;;;27.20;92.60;;;;;;5098988;28;20392;-76
2021/08/15 09:56:14;;;;;;;9.20;6.50;;;27.20;92.30;;;;;;5106983;27;20051;-77
2021/08/15 09:58:43;;;;;;;9.25;7.10;;;27.30;92.40;;;;;;5127252;27;20154;-78
2021/08/15 10:01:11;;;;;;;9.57;6.72;;;27.30;92.70;;;;;;5119519;27;20093;-78
2021/08/15 10:03:41;;;;;;;10.15;7.38;;;27.30;92.50;;;;;;5127015;27;20039;-77
2021/08/15 10:06:14;;;;;;;9.57;7.00;;;27.40;92.30;;;;;;5122772;27;20036;-79
2021/08/15 10:08:42;;;;;;;8.70;6.25;;;27.40;92.30;;;;;;5125162;27;20043;-79
2021/08/15 10:11:09;;;;;;;8.05;6.50;;;27.40;92.70;;;;;;5123464;27;20497;-77
2021/08/15 10:13:36;;;;;;;8.88;6.45;;;27.40;92.30;;;;;;5125039;27;20053;-78
2021/08/15 10:16:08;;;;;;;7.32;5.65;;;27.50;92.30;;;;;;5131179;27;20107;-76
2021/08/15 10:18:40;;;;;;;8.45;6.40;;;27.50;92.20;;;;;;5113178;28;20057;-77
2021/08/15 10:21:15;;;;;;;8.77;6.30;;;27.60;92.00;;;;;;5126267;28;20071;-76
2021/08/15 10:23:46;;;;;;;8.32;6.05;;;27.70;91.70;;;;;;5129161;27;20078;-76
2021/08/15 10:26:46;;;;;;;9.13;6.35;;;27.70;91.60;;;;;;5110493;28;20162;-79
2021/08/15 10:29:38;;;;;;;8.55;6.28;;;27.80;91.40;;;;;;5114076;28;20452;-80
2021/08/15 10:32:24;;;;;;;8.95;6.07;;;27.90;91.20;;;;;;5118154;27;20122;-79
2021/08/15 10:35:17;;;;;;;9.32;5.93;;;28.00;91.30;;;;;;5123202;27;20475;-77
2021/08/15 10:37:53;;;;;;;8.07;5.87;;;28.10;91.30;;;;;;5125747;27;20068;-79
2021/08/15 10:41:00;;;;;;;8.27;6.10;;;28.10;91.20;;;;;;5131765;27;20325;-79
2021/08/15 10:44:09;;;;;;;8.65;6.15;;;28.30;91.30;;;;;;5127581;27;20466;-77
2021/08/15 10:46:38;;;;;;;8.25;6.55;;;28.40;90.90;;;;;;5112828;27;20074;-80
2021/08/15 10:49:09;;;;;;;8.70;6.05;;;28.50;90.70;;;;;;5116755;27;20043;-79
2021/08/15 10:51:51;;;;;;;8.25;5.80;;;28.50;90.50;;;;;;5115960;27;20051;-78
2021/08/15 10:55:00;;;;;;;8.68;6.20;;;28.50;90.30;;;;;;5122831;27;20090;-77
2021/08/15 10:57:43;;;;;;;7.30;6.03;;;28.50;90.30;;;;;;5117526;27;20485;-79
2021/08/15 11:00:44;;;;;;;8.77;6.10;;;28.50;90.00;;;;;;5119715;27;20044;-79
2021/08/15 11:03:55;;;;;;;10.32;5.78;;;28.60;89.80;;;;;;5112499;27;20308;-78
2021/08/15 11:06:50;;;;;;;8.15;6.05;;;28.60;89.50;;;;;;5107042;27;20139;-79
2021/08/15 11:09:19;;;;;;;8.48;6.18;;;28.80;89.60;;;;;;5124459;27;20062;-79
2021/08/15 11:12:13;;;;;;;8.40;5.70;;;28.80;88.80;;;;;;5112017;27;20130;-77
2021/08/15 11:15:08;;;;;;;9.45;6.18;;;28.80;88.60;;;;;;5115210;28;20044;-79
2021/08/15 11:17:37;;;;;;;8.30;6.03;;;28.90;87.70;;;;;;5120495;27;20072;-79
2021/08/15 11:20:34;;;;;;;8.35;5.80;;;29.00;88.30;;;;;;5124745;27;20399;-79
2021/08/15 11:23:14;;;;;;;8.88;6.32;;;29.10;87.90;;;;;;5098997;27;20134;-78
2021/08/15 11:25:43;;;;;;;9.23;5.80;;;29.10;86.90;;;;;;5121667;27;20220;-81
2021/08/15 11:28:10;;;;;;;7.57;5.70;;;29.10;87.00;;;;;;5123293;27;20047;-79
2021/08/15 11:30:38;;;;;;;7.47;5.10;;;29.10;87.60;;;;;;5123276;27;20129;-78
2021/08/15 11:33:08;;;;;;;6.72;4.93;;;29.20;88.10;;;;;;5124835;27;20403;-78
2021/08/15 11:35:43;;;;;;;6.95;4.90;;;29.20;88.20;;;;;;5114771;27;20039;-78
2021/08/15 11:38:12;;;;;;;6.53;4.93;;;29.30;88.00;;;;;;5105737;27;20054;-78
2021/08/15 11:40:48;;;;;;;7.18;5.22;;;29.40;87.90;;;;;;5122440;27;20070;-78
2021/08/15 11:43:18;;;;;;;7.45;5.55;;;29.60;87.60;;;;;;5121836;27;20043;-78
2021/08/15 11:45:49;;;;;;;7.40;5.35;;;29.70;87.60;;;;;;5125848;27;20127;-78
2021/08/15 11:48:18;;;;;;;7.15;5.10;;;29.70;86.70;;;;;;5125342;27;20130;-78
2021/08/15 11:50:49;;;;;;;6.90;5.38;;;29.80;86.40;;;;;;5119912;27;20043;-80
2021/08/15 11:53:24;;;;;;;7.03;5.10;;;29.90;86.10;;;;;;5123375;27;20043;-79
2021/08/15 11:55:53;;;;;;;7.78;5.00;;;29.90;85.50;;;;;;5124190;27;20126;-78
2021/08/15 11:58:21;;;;;;;7.00;4.95;;;29.90;85.80;;;;;;5129043;27;20531;-78
2021/08/15 12:00:49;;;;;;;7.32;4.80;;;29.90;85.40;;;;;;5125222;27;20457;-76
2021/08/15 12:03:19;;;;;;;6.93;5.20;;;29.90;85.60;;;;;;5116977;27;20404;-79
2021/08/15 12:05:49;;;;;;;10.93;7.72;;;30.00;85.30;;;;;;5121035;27;20463;-78
2021/08/15 12:08:22;;;;;;;10.32;6.70;;;30.00;84.30;;;;;;5122960;27;20068;-76
2021/08/15 12:10:51;;;;;;;7.90;6.03;;;30.10;84.00;;;;;;5122288;27;20048;-77
2021/08/15 12:13:32;;;;;;;7.80;5.10;;;30.20;83.60;;;;;;5123269;27;20075;-77
2021/08/15 12:16:12;;;;;;;8.00;5.32;;;30.30;82.90;;;;;;5122425;27;20047;-77
2021/08/15 12:18:42;;;;;;;6.82;5.05;;;30.30;81.90;;;;;;5112562;27;20106;-79
2021/08/15 12:21:26;;;;;;;6.88;4.70;;;30.40;81.60;;;;;;5118601;27;20127;-78
2021/08/15 12:24:07;;;;;;;7.53;5.20;;;30.50;81.90;;;;;;5118232;27;20126;-78
2021/08/15 12:26:36;;;;;;;8.15;5.53;;;30.50;80.70;;;;;;5095848;28;20476;-78
2021/08/15 12:29:06;;;;;;;6.35;4.68;;;30.60;80.00;;;;;;5125235;27;20127;-78
2021/08/15 12:31:36;;;;;;;5.97;4.68;;;30.60;80.30;;;;;;5111531;27;20107;-78
2021/08/15 12:34:09;;;;;;;7.80;5.13;;;30.70;80.80;;;;;;5121740;27;20433;-77
2021/08/15 12:36:42;;;;;;;;;;;30.80;80.20;;;;;;5121372;27;20074;-77
2021/08/15 12:39:11;;;;;;;8.53;5.57;;;30.80;79.50;;;;;;5129349;27;19955;-77
2021/08/15 12:41:56;;;;;;;9.05;5.32;;;30.70;79.30;;;;;;5123145;27;20074;-79
2021/08/15 12:44:26;;;;;;;9.00;5.93;;;30.50;79.60;;;;;;5139988;27;20146;-79
2021/08/15 12:47:07;;;;;;;8.57;6.43;;;30.40;79.80;;;;;;5133535;27;20066;-79
2021/08/15 12:49:38;;;;;;;7.78;6.30;;;30.30;80.00;;;;;;5117537;27;20047;-80
2021/08/15 12:52:19;;;;;;;9.65;6.63;;;30.10;80.30;;;;;;5120817;28;20137;-79
2021/08/15 12:55:31;;;;;;;10.77;6.88;;;29.90;80.40;;;;;;5112138;28;20049;-82
2021/08/15 12:58:01;;;;;;;8.85;6.35;;;29.80;80.60;;;;;;5114044;27;20047;-80
2021/08/15 13:00:32;;;;;;;7.28;5.75;;;29.60;81.30;;;;;;5116750;27;20071;-82